createdAt,value
2022-10-25T00:02:20.680Z,100511.94
2022-10-25T00:04:47.780Z,100511.16
2022-10-25T00:07:14.925Z,100516.47
2022-10-25T00:09:41.741Z,100520.16
2022-10-25T00:12:08.480Z,100508.00
2022-10-25T00:14:35.642Z,100513.06
2022-10-25T00:17:02.533Z,100518.19
2022-10-25T00:19:29.053Z,100529.75
2022-10-25T00:21:57.796Z,100526.38
2022-10-25T00:24:27.026Z,100519.53
2022-10-25T00:26:53.517Z,100520.66
2022-10-25T00:29:20.170Z,100523.41
2022-10-25T00:31:49.202Z,100525.75
2022-10-25T00:34:15.791Z,100524.81
2022-10-25T00:36:42.317Z,100518.78
2022-10-25T00:39:09.530Z,100520.41
2022-10-25T00:41:36.233Z,100512.13
2022-10-25T00:44:47.356Z,100515.41
2022-10-25T00:47:19.595Z,100524.28
2022-10-25T00:49:58.065Z,100529.97
2022-10-25T00:52:27.052Z,100520.44
2022-10-25T00:54:57.072Z,100519.81
2022-10-25T00:57:35.426Z,100522.56
2022-10-25T01:00:02.747Z,100527.69
2022-10-25T01:02:29.463Z,100516.84
2022-10-25T01:04:56.328Z,100524.75
2022-10-25T01:07:23.048Z,100522.75
2022-10-25T01:09:51.198Z,100531.84
2022-10-25T01:12:18.048Z,100529.09
2022-10-25T01:14:49.373Z,100527.31
2022-10-25T01:17:34.570Z,100517.09
2022-10-25T01:20:28.936Z,100524.44
2022-10-25T01:23:35.753Z,100523.50
2022-10-25T01:26:33.368Z,100520.38
2022-10-25T01:29:26.972Z,100519.00
2022-10-25T01:32:23.969Z,100530.44
2022-10-25T01:35:05.710Z,100527.75
2022-10-25T01:37:59.160Z,100527.34
2022-10-25T01:40:58.720Z,100533.84
2022-10-25T01:43:53.516Z,100529.16
2022-10-25T01:46:25.684Z,100533.50
2022-10-25T01:49:02.021Z,100531.41
2022-10-25T01:51:31.452Z,100523.97
2022-10-25T01:54:00.184Z,100533.06
2022-10-25T01:56:41.878Z,100532.25
2022-10-25T01:59:38.726Z,100531.19
2022-10-25T02:02:24.134Z,100517.31
2022-10-25T02:05:10.566Z,100521.72
2022-10-25T02:08:12.627Z,100520.78
2022-10-25T02:10:44.795Z,100530.50
2022-10-25T02:13:28.336Z,100514.53
2022-10-25T02:16:00.949Z,100525.66
2022-10-25T02:21:05.628Z,100527.13
2022-10-25T02:23:36.117Z,100529.75
2022-10-25T02:26:07.360Z,100532.78
2022-10-25T02:28:38.876Z,100526.16
2022-10-25T02:31:14.059Z,100526.78
2022-10-25T02:33:44.560Z,100530.97
2022-10-25T02:36:23.821Z,100530.00
2022-10-25T02:38:52.642Z,100529.91
2022-10-25T02:41:20.683Z,100532.44
2022-10-25T02:43:49.977Z,100532.03
2022-10-25T02:46:19.174Z,100537.19
2022-10-25T02:48:52.133Z,100534.03
2022-10-25T02:51:19.223Z,100541.16
2022-10-25T02:53:46.011Z,100544.53
2022-10-25T02:56:16.295Z,100539.03
2022-10-25T02:58:44.463Z,100554.69
2022-10-25T03:01:12.738Z,100546.69
2022-10-25T03:03:40.242Z,100545.25
2022-10-25T03:06:08.767Z,100551.91
2022-10-25T03:08:36.128Z,100552.66
2022-10-25T03:11:03.278Z,100555.09
2022-10-25T03:13:29.980Z,100554.72
2022-10-25T03:15:56.823Z,100553.50
2022-10-25T03:18:23.682Z,100553.94
2022-10-25T03:20:50.578Z,100561.47
2022-10-25T03:23:18.705Z,100556.56
2022-10-25T03:25:45.446Z,100557.03
2022-10-25T03:28:12.166Z,100573.75
2022-10-25T03:30:38.817Z,100563.84
2022-10-25T03:33:05.487Z,100565.44
2022-10-25T03:35:32.093Z,100579.19
2022-10-25T03:37:58.738Z,100573.66
2022-10-25T03:40:25.417Z,100581.50
2022-10-25T03:42:52.092Z,100581.59
2022-10-25T03:45:21.259Z,100578.13
2022-10-25T03:47:48.167Z,100579.00
2022-10-25T03:50:15.064Z,100583.50
2022-10-25T03:52:42.006Z,100576.63
2022-10-25T03:55:09.610Z,100587.75
2022-10-25T03:57:36.270Z,100589.78
2022-10-25T04:00:06.812Z,100595.75
2022-10-25T04:02:38.552Z,100595.88
2022-10-25T04:05:08.057Z,100591.53
2022-10-25T04:07:35.061Z,100592.50
2022-10-25T04:10:02.477Z,100601.81
2022-10-25T04:12:32.277Z,100598.13
2022-10-25T04:14:58.918Z,100596.63
2022-10-25T04:17:25.589Z,100598.59
2022-10-25T04:19:53.742Z,100601.75
2022-10-25T04:22:27.830Z,100601.41
2022-10-25T04:24:54.479Z,100601.09
2022-10-25T04:27:21.074Z,100590.19
2022-10-25T04:29:47.632Z,100591.69
2022-10-25T04:32:14.230Z,100593.88
2022-10-25T04:34:40.826Z,100599.22
2022-10-25T04:37:09.890Z,100592.59
2022-10-25T04:39:38.396Z,100597.44
2022-10-25T04:42:05.279Z,100606.91
2022-10-25T04:44:36.357Z,100605.91
2022-10-25T04:47:03.032Z,100606.97
2022-10-25T04:49:38.133Z,100608.34
2022-10-25T04:52:10.422Z,100602.09
2022-10-25T04:54:42.812Z,100610.97
2022-10-25T04:57:10.956Z,100611.75
2022-10-25T04:59:37.798Z,100601.75
2022-10-25T05:02:05.583Z,100617.22
2022-10-25T05:04:37.889Z,100622.88
2022-10-25T05:07:04.621Z,100616.38
2022-10-25T05:09:36.405Z,100613.88
2022-10-25T05:12:06.896Z,100612.97
2022-10-25T05:14:33.537Z,100617.72
2022-10-25T05:17:00.586Z,100619.13
2022-10-25T05:19:33.037Z,100624.56
2022-10-25T05:22:03.831Z,100620.91
2022-10-25T05:24:30.739Z,100609.41
2022-10-25T05:27:01.794Z,100623.88
2022-10-25T05:29:28.461Z,100624.09
2022-10-25T05:31:58.615Z,100610.88
2022-10-25T05:34:30.750Z,100622.03
2022-10-25T05:36:59.850Z,100615.97
2022-10-25T05:39:26.486Z,100627.59
2022-10-25T05:41:53.692Z,100628.72
2022-10-25T05:44:26.615Z,100625.91
2022-10-25T05:46:55.985Z,100637.72
2022-10-25T05:49:34.461Z,100636.34
2022-10-25T05:52:05.349Z,100642.16
2022-10-25T05:54:34.382Z,100633.78
2022-10-25T05:57:00.953Z,100634.03
2022-10-25T05:59:30.701Z,100641.78
2022-10-25T06:01:57.392Z,100640.13
2022-10-25T06:04:24.423Z,100651.53
2022-10-25T06:06:52.326Z,100656.16
2022-10-25T06:09:20.791Z,100650.19
2022-10-25T06:11:49.821Z,100655.41
2022-10-25T06:14:16.360Z,100662.00
2022-10-25T06:16:42.952Z,100659.84
2022-10-25T06:19:09.636Z,100662.16
2022-10-25T06:21:39.990Z,100660.25
2022-10-25T06:24:07.620Z,100663.69
2022-10-25T06:26:34.405Z,100664.69
2022-10-25T06:29:04.610Z,100667.19
2022-10-25T06:34:19.050Z,100676.66
2022-10-25T06:36:46.075Z,100681.34
2022-10-25T06:39:15.968Z,100683.22
2022-10-25T06:41:52.675Z,100682.84
2022-10-25T06:44:19.746Z,100688.50
2022-10-25T06:49:37.719Z,100697.78
2022-10-25T06:52:09.671Z,100702.38
2022-10-25T06:54:39.359Z,100699.38
2022-10-25T06:57:06.149Z,100704.41
2022-10-25T06:59:32.999Z,100707.06
2022-10-25T07:02:04.068Z,100717.44
2022-10-25T07:07:19.446Z,100721.81
2022-10-25T07:09:46.103Z,100719.19
2022-10-25T07:12:12.988Z,100717.53
2022-10-25T07:14:39.566Z,100723.47
2022-10-25T07:17:06.119Z,100732.44
2022-10-25T07:19:32.648Z,100723.88
2022-10-25T07:21:59.257Z,100735.63
2022-10-25T07:24:25.811Z,100733.63
2022-10-25T07:26:52.376Z,100740.09
2022-10-25T07:29:19.010Z,100741.69
2022-10-25T07:31:45.596Z,100742.06
2022-10-25T07:34:14.535Z,100744.72
2022-10-25T07:36:41.584Z,100744.28
2022-10-25T07:39:08.281Z,100742.28
2022-10-25T07:41:35.733Z,100748.78
2022-10-25T07:44:02.457Z,100749.56
2022-10-25T07:46:29.001Z,100754.56
2022-10-25T07:48:55.688Z,100752.66
2022-10-25T07:51:22.602Z,100752.47
2022-10-25T07:53:49.930Z,100764.25
2022-10-25T07:56:23.254Z,100754.63
2022-10-25T07:58:52.215Z,100766.00
2022-10-25T08:01:24.264Z,100770.63
2022-10-25T08:03:52.340Z,100764.03
2022-10-25T08:06:20.781Z,100765.88
2022-10-25T08:08:47.986Z,100772.22
2022-10-25T08:11:14.579Z,100770.94
2022-10-25T08:13:41.319Z,100770.44
2022-10-25T08:16:08.523Z,100774.44
2022-10-25T08:18:35.563Z,100784.19
2022-10-25T08:21:03.979Z,100781.75
2022-10-25T08:23:32.150Z,100782.47
2022-10-25T08:25:59.313Z,100790.53
2022-10-25T08:28:26.099Z,100776.53
2022-10-25T08:30:55.908Z,100782.63
2022-10-25T08:33:23.167Z,100785.78
2022-10-25T08:35:49.989Z,100789.06
2022-10-25T08:38:16.631Z,100801.88
2022-10-25T08:40:43.207Z,100803.63
2022-10-25T08:43:31.507Z,100807.00
2022-10-25T08:46:05.943Z,100809.59
2022-10-25T08:48:41.247Z,100811.28
2022-10-25T08:51:19.214Z,100813.47
2022-10-25T08:53:50.246Z,100822.75
2022-10-25T08:56:18.475Z,100818.66
2022-10-25T08:58:57.224Z,100827.66
2022-10-25T09:01:29.074Z,100824.84
2022-10-25T09:03:56.350Z,100830.97
2022-10-25T09:06:33.888Z,100831.41
2022-10-25T09:09:19.452Z,100829.34
2022-10-25T09:12:04.598Z,100835.91
2022-10-25T09:14:59.093Z,100845.03
2022-10-25T09:17:43.817Z,100834.69
2022-10-25T09:20:33.268Z,100838.66
2022-10-25T09:23:07.936Z,100839.94
2022-10-25T09:25:47.099Z,100841.28
2022-10-25T09:28:25.621Z,100841.88
2022-10-25T09:30:57.202Z,100834.09
2022-10-25T09:33:30.419Z,100840.13
2022-10-25T09:35:59.622Z,100853.91
2022-10-25T09:38:41.093Z,100854.88
2022-10-25T09:41:13.373Z,100859.22
2022-10-25T09:43:49.085Z,100853.59
2022-10-25T09:46:36.995Z,100866.63
2022-10-25T09:49:15.430Z,100862.97
2022-10-25T09:51:57.527Z,100869.00
2022-10-25T09:54:51.298Z,100855.19
2022-10-25T09:57:18.966Z,100861.16
2022-10-25T09:59:49.721Z,100863.41
2022-10-25T10:02:22.762Z,100873.31
2022-10-25T10:04:49.612Z,100883.38
2022-10-25T10:07:36.018Z,100878.25
2022-10-25T10:10:09.943Z,100863.75
2022-10-25T10:12:50.093Z,100870.69
2022-10-25T10:15:31.814Z,100867.78
2022-10-25T10:18:31.964Z,100873.41
2022-10-25T10:21:06.813Z,100877.84
2022-10-25T10:23:42.102Z,100878.75
2022-10-25T10:26:20.041Z,100878.03
2022-10-25T10:28:49.212Z,100886.41
2022-10-25T10:31:18.013Z,100878.75
2022-10-25T10:33:51.862Z,100884.84
2022-10-25T10:36:27.200Z,100880.84
2022-10-25T10:38:54.835Z,100881.25
2022-10-25T10:41:25.432Z,100886.81
2022-10-25T10:44:08.181Z,100883.66
2022-10-25T10:46:34.938Z,100889.22
2022-10-25T10:49:02.598Z,100889.81
2022-10-25T10:51:43.971Z,100901.19
2022-10-25T10:54:25.319Z,100885.38
2022-10-25T10:57:00.127Z,100887.66
2022-10-25T10:59:31.933Z,100884.09
2022-10-25T11:02:11.912Z,100885.03
2022-10-25T11:04:52.833Z,100894.19
2022-10-25T11:07:40.008Z,100886.94
2022-10-25T11:10:15.751Z,100894.28
2022-10-25T11:12:43.523Z,100884.53
2022-10-25T11:15:16.577Z,100890.19
2022-10-25T11:17:54.228Z,100905.16
2022-10-25T11:20:33.253Z,100898.84
2022-10-25T11:23:21.047Z,100902.00
2022-10-25T11:25:52.120Z,100914.78
2022-10-25T11:28:41.528Z,100905.09
2022-10-25T11:31:08.156Z,100917.41
2022-10-25T11:33:56.717Z,100922.22
2022-10-25T11:36:35.682Z,100929.84
2022-10-25T11:39:08.256Z,100923.66
2022-10-25T11:41:44.752Z,100940.69
2022-10-25T11:44:34.902Z,100929.56
2022-10-25T11:47:13.715Z,100932.75
2022-10-25T11:50:07.864Z,100942.16
2022-10-25T11:52:43.329Z,100941.28
2022-10-25T11:55:15.886Z,100946.00
2022-10-25T11:57:53.431Z,100944.56
2022-10-25T12:00:22.971Z,100936.59
2022-10-25T12:03:11.236Z,100942.81
2022-10-25T12:06:02.307Z,100930.13
2022-10-25T12:08:47.698Z,100938.88
2022-10-25T12:11:19.216Z,100948.28
2022-10-25T12:13:49.213Z,100945.16
2022-10-25T12:16:19.309Z,100942.50
2022-10-25T12:19:01.797Z,100951.78
2022-10-25T12:21:36.359Z,100951.28
2022-10-25T12:24:05.215Z,100956.00
2022-10-25T12:26:40.731Z,100959.72
2022-10-25T12:29:14.569Z,100962.19
2022-10-25T12:31:45.920Z,100967.31
2022-10-25T12:34:19.646Z,100978.81
2022-10-25T12:36:56.612Z,100976.31
2022-10-25T12:39:49.351Z,100974.38
2022-10-25T12:42:24.026Z,100969.91
2022-10-25T12:45:30.233Z,100977.53
2022-10-25T12:48:15.349Z,100983.06
2022-10-25T12:51:09.127Z,100992.38
2022-10-25T12:53:49.579Z,100994.38
2022-10-25T12:56:28.261Z,100990.59
2022-10-25T12:59:18.721Z,100993.25
2022-10-25T13:02:03.198Z,100994.22
2022-10-25T13:04:34.437Z,101000.00
2022-10-25T13:07:06.814Z,100996.56
2022-10-25T13:09:41.466Z,101001.19
2022-10-25T13:12:15.107Z,100992.78
2022-10-25T13:14:54.860Z,100977.06
2022-10-25T13:17:21.532Z,100982.63
2022-10-25T13:19:54.670Z,100989.84
2022-10-25T13:22:27.859Z,100984.28
2022-10-25T13:24:55.482Z,100999.06
2022-10-25T13:27:25.345Z,101006.16
2022-10-25T13:33:24.342Z,101001.09
2022-10-25T13:36:00.638Z,101002.50
2022-10-25T13:38:38.887Z,101007.31
2022-10-25T13:41:15.192Z,101008.97
2022-10-25T13:44:14.974Z,101004.03
2022-10-25T13:46:54.378Z,101015.31
2022-10-25T13:49:24.046Z,101015.94
2022-10-25T13:52:26.653Z,101008.25
2022-10-25T13:54:57.154Z,101011.34
2022-10-25T13:57:56.710Z,101012.28
2022-10-25T14:00:29.454Z,101010.94
2022-10-25T14:03:08.278Z,101003.00
2022-10-25T14:05:53.990Z,101005.16
2022-10-25T14:08:47.164Z,101004.69
2022-10-25T14:11:18.586Z,101009.03
2022-10-25T14:13:52.472Z,101013.34
2022-10-25T14:16:32.251Z,101013.88
2022-10-25T14:19:22.145Z,101020.44
2022-10-25T14:21:51.272Z,101013.69
2022-10-25T14:24:19.945Z,101015.31
2022-10-25T14:27:00.960Z,101008.06
2022-10-25T14:29:29.498Z,101012.53
2022-10-25T14:31:57.024Z,101001.63
2022-10-25T14:34:27.289Z,101007.25
2022-10-25T14:37:02.750Z,101009.31
2022-10-25T14:39:37.926Z,101008.56
2022-10-25T14:42:23.272Z,101012.19
2022-10-25T14:44:53.585Z,101013.63
2022-10-25T14:47:34.940Z,101009.56
2022-10-25T14:50:03.856Z,101011.56
2022-10-25T14:52:35.736Z,101014.22
2022-10-25T14:55:24.499Z,101015.28
2022-10-25T14:57:57.199Z,101013.66
2022-10-25T15:00:24.615Z,101023.41
2022-10-25T15:03:02.490Z,101018.47
2022-10-25T15:05:40.747Z,101023.16
2022-10-25T15:08:23.500Z,101020.84
2022-10-25T15:11:08.043Z,101022.88
2022-10-25T15:13:58.446Z,101024.13
2022-10-25T15:16:28.290Z,101030.94
2022-10-25T15:19:28.109Z,101025.44
2022-10-25T15:22:11.565Z,101026.28
2022-10-25T15:25:18.545Z,101026.97
2022-10-25T15:28:29.178Z,101024.50
2022-10-25T15:31:39.526Z,101029.25
2022-10-25T15:34:08.307Z,101027.00
2022-10-25T15:36:48.177Z,101031.31
2022-10-25T15:39:32.798Z,101025.94
2022-10-25T15:41:59.808Z,101032.63
2022-10-25T15:44:26.389Z,101038.31
2022-10-25T15:46:53.154Z,101038.44
2022-10-25T15:49:20.388Z,101037.59
2022-10-25T15:51:55.382Z,101039.91
2022-10-25T15:54:24.212Z,101031.91
2022-10-25T15:56:53.031Z,101042.06
2022-10-25T15:59:22.884Z,101041.41
2022-10-25T16:01:55.632Z,101042.19
2022-10-25T16:04:22.391Z,101041.91
2022-10-25T16:06:49.184Z,101035.03
2022-10-25T16:09:24.750Z,101037.53
2022-10-25T16:11:56.400Z,101049.66
2022-10-25T16:14:28.793Z,101054.28
2022-10-25T16:17:12.743Z,101048.91
2022-10-25T16:22:28.473Z,101053.38
2022-10-25T16:24:55.318Z,101056.16
2022-10-25T16:27:28.838Z,101062.00
2022-10-25T16:30:05.491Z,101062.94
2022-10-25T16:32:34.062Z,101061.78
2022-10-25T16:35:01.795Z,101069.13
2022-10-25T16:37:30.523Z,101071.41
2022-10-25T16:40:04.503Z,101072.91
2022-10-25T16:42:38.022Z,101076.81
2022-10-25T16:45:36.004Z,101070.38
2022-10-25T16:48:12.678Z,101080.44
2022-10-25T16:50:43.561Z,101074.22
2022-10-25T16:53:12.687Z,101073.38
2022-10-25T16:55:42.515Z,101078.28
2022-10-25T16:58:17.420Z,101083.06
2022-10-25T17:00:45.996Z,101079.13
2022-10-25T17:03:12.769Z,101084.25
2022-10-25T17:05:41.675Z,101078.75
2022-10-25T17:08:08.340Z,101086.25
2022-10-25T17:10:36.645Z,101083.56
2022-10-25T17:13:05.347Z,101079.59
2022-10-25T17:15:36.248Z,101091.69
2022-10-25T17:18:06.143Z,101088.88
2022-10-25T17:20:33.134Z,101090.63
2022-10-25T17:23:02.632Z,101093.72
2022-10-25T17:25:29.393Z,101089.59
2022-10-25T17:27:56.361Z,101099.88
2022-10-25T17:30:25.565Z,101093.34
2022-10-25T17:32:55.569Z,101097.97
2022-10-25T17:35:29.360Z,101096.53
2022-10-25T17:37:56.906Z,101105.41
2022-10-25T17:40:24.224Z,101094.50
2022-10-25T17:42:52.948Z,101107.47
2022-10-25T17:45:27.011Z,101103.81
2022-10-25T17:47:53.934Z,101102.47
2022-10-25T17:50:33.718Z,101105.63
2022-10-25T17:53:10.192Z,101103.63
2022-10-25T17:55:43.222Z,101107.84
2022-10-25T17:58:37.868Z,101111.81
2022-10-25T18:01:36.641Z,101113.81
2022-10-25T18:07:00.152Z,101113.22
2022-10-25T18:09:27.362Z,101111.81
2022-10-25T18:11:59.851Z,101116.41
2022-10-25T18:14:31.060Z,101120.66
2022-10-25T18:17:03.835Z,101123.97
2022-10-25T18:19:42.464Z,101118.31
2022-10-25T18:22:13.843Z,101113.78
2022-10-25T18:24:51.448Z,101120.09
2022-10-25T18:27:18.384Z,101117.72
2022-10-25T18:29:49.144Z,101124.63
2022-10-25T18:32:20.832Z,101119.81
2022-10-25T18:34:58.331Z,101128.28
2022-10-25T18:37:27.565Z,101131.69
2022-10-25T18:40:26.305Z,101126.78
2022-10-25T18:42:58.311Z,101123.38
2022-10-25T18:45:45.420Z,101127.16
2022-10-25T18:48:18.735Z,101120.00
2022-10-25T18:51:15.426Z,101125.44
2022-10-25T18:53:43.529Z,101128.22
2022-10-25T18:56:29.605Z,101121.22
2022-10-25T18:59:15.497Z,101126.50
2022-10-25T19:04:59.662Z,101124.91
2022-10-25T19:07:35.582Z,101121.91
2022-10-25T19:10:02.724Z,101127.91
2022-10-25T19:12:29.350Z,101127.72
2022-10-25T19:14:55.957Z,101131.44
2022-10-25T19:17:22.493Z,101136.69
2022-10-25T19:19:49.174Z,101123.97
2022-10-25T19:22:15.898Z,101134.41
2022-10-25T19:24:42.608Z,101133.53
2022-10-25T19:27:09.458Z,101130.81
2022-10-25T19:29:36.091Z,101139.41
2022-10-25T19:32:02.716Z,101134.72
2022-10-25T19:34:29.372Z,101140.56
2022-10-25T19:36:56.774Z,101136.50
2022-10-25T19:39:23.432Z,101136.97
2022-10-25T19:41:50.484Z,101134.06
2022-10-25T19:44:17.043Z,101138.97
2022-10-25T19:46:43.691Z,101143.72
2022-10-25T19:49:11.831Z,101134.13
2022-10-25T19:51:38.542Z,101132.97
2022-10-25T19:54:05.181Z,101132.88
2022-10-25T19:56:34.080Z,101134.41
2022-10-25T19:59:00.827Z,101140.53
2022-10-25T20:01:28.157Z,101147.44
2022-10-25T20:03:57.465Z,101143.78
2022-10-25T20:06:27.077Z,101148.50
2022-10-25T20:08:55.005Z,101144.38
2022-10-25T20:11:22.948Z,101146.97
2022-10-25T20:13:56.655Z,101155.69
2022-10-25T20:16:24.559Z,101159.03
2022-10-25T20:18:51.575Z,101156.56
2022-10-25T20:21:20.974Z,101149.88
2022-10-25T20:23:51.405Z,101162.19
2022-10-25T20:26:19.365Z,101159.56
2022-10-25T20:28:46.517Z,101160.03
2022-10-25T20:31:13.907Z,101162.69
2022-10-25T20:33:41.477Z,101165.06
2022-10-25T20:36:10.581Z,101163.28
2022-10-25T20:38:37.584Z,101174.63
2022-10-25T20:41:08.705Z,101173.25
2022-10-25T20:43:36.093Z,101167.25
2022-10-25T20:46:03.169Z,101172.78
2022-10-25T20:48:30.665Z,101170.88
2022-10-25T20:50:57.614Z,101173.16
2022-10-25T20:53:24.247Z,101168.94
2022-10-25T20:55:50.916Z,101170.63
2022-10-25T20:58:19.795Z,101174.06
2022-10-25T21:00:47.879Z,101179.41
2022-10-25T21:03:15.368Z,101183.75
2022-10-25T21:05:45.362Z,101178.78
2022-10-25T21:08:13.108Z,101179.63
2022-10-25T21:10:41.636Z,101181.47
2022-10-25T21:13:09.268Z,101192.81
2022-10-25T21:15:36.693Z,101197.91
2022-10-25T21:18:03.948Z,101196.06
2022-10-25T21:20:30.836Z,101198.59
2022-10-25T21:22:57.451Z,101197.03
2022-10-25T21:25:24.094Z,101191.47
2022-10-25T21:27:54.597Z,101195.56
2022-10-25T21:30:21.594Z,101197.91
2022-10-25T21:32:48.220Z,101200.81
2022-10-25T21:35:15.054Z,101201.13
2022-10-25T21:37:45.401Z,101205.09
2022-10-25T21:40:16.487Z,101209.97
2022-10-25T21:42:43.470Z,101212.50
2022-10-25T21:45:10.878Z,101207.03
2022-10-25T21:47:37.894Z,101211.09
2022-10-25T21:50:06.067Z,101204.97
2022-10-25T21:52:33.017Z,101208.50
2022-10-25T21:54:59.558Z,101204.66
2022-10-25T21:57:26.192Z,101203.88
2022-10-25T21:59:52.786Z,101210.00
2022-10-25T22:02:19.593Z,101207.84
2022-10-25T22:04:46.296Z,101214.84
2022-10-25T22:07:12.937Z,101205.19
2022-10-25T22:09:39.513Z,101208.00
2022-10-25T22:12:06.631Z,101210.28
2022-10-25T22:14:33.280Z,101213.63
2022-10-25T22:16:59.874Z,101212.41
2022-10-25T22:19:26.528Z,101214.91
2022-10-25T22:21:53.119Z,101209.59
2022-10-25T22:24:19.692Z,101214.75
2022-10-25T22:26:46.611Z,101214.00
2022-10-25T22:29:14.022Z,101211.63
2022-10-25T22:31:40.949Z,101215.91
2022-10-25T22:34:08.615Z,101212.03
2022-10-25T22:36:38.129Z,101217.91
2022-10-25T22:39:05.938Z,101209.06
2022-10-25T22:41:33.375Z,101211.88
2022-10-25T22:44:00.796Z,101215.25
2022-10-25T22:46:30.021Z,101218.72
2022-10-25T22:48:58.292Z,101214.56
2022-10-25T22:51:27.696Z,101213.91
2022-10-25T22:53:55.045Z,101216.13
2022-10-25T22:56:24.556Z,101218.63
2022-10-25T22:58:56.500Z,101217.31
2022-10-25T23:01:25.465Z,101220.25
2022-10-25T23:03:54.772Z,101217.25
2022-10-25T23:06:29.817Z,101213.06
2022-10-25T23:08:58.640Z,101215.69
2022-10-25T23:11:27.703Z,101216.78
2022-10-25T23:13:55.044Z,101208.34
2022-10-25T23:16:21.736Z,101213.44
2022-10-25T23:18:49.939Z,101211.59
2022-10-25T23:21:19.148Z,101215.34
2022-10-25T23:23:46.718Z,101214.03
2022-10-25T23:26:20.342Z,101219.44
2022-10-25T23:28:47.443Z,101219.13
2022-10-25T23:31:14.387Z,101218.44
2022-10-25T23:33:41.946Z,101222.03
2022-10-25T23:36:16.912Z,101214.59
2022-10-25T23:38:44.216Z,101211.22
2022-10-25T23:41:11.253Z,101209.84
2022-10-25T23:43:38.449Z,101204.44
2022-10-25T23:46:06.078Z,101209.63
2022-10-25T23:48:32.907Z,101204.34
2022-10-25T23:51:08.044Z,101213.16
2022-10-25T23:53:35.347Z,101203.50
2022-10-25T23:56:03.763Z,101209.19
2022-10-25T23:58:30.901Z,101206.22
